createdAt,value
2023-07-05T00:02:30.997Z,6.60
2023-07-05T00:06:42.795Z,7.40
2023-07-05T00:11:04.278Z,7.40
2023-07-05T00:15:15.945Z,7.95
2023-07-05T00:19:27.659Z,7.03
2023-07-05T00:23:44.335Z,8.10
2023-07-05T00:27:56.011Z,8.27
2023-07-05T00:32:08.703Z,7.78
2023-07-05T00:36:20.474Z,8.63
2023-07-05T00:40:32.199Z,7.95
2023-07-05T00:45:12.783Z,7.90
2023-07-05T00:49:27.966Z,7.90
2023-07-05T00:53:39.759Z,7.20
2023-07-05T00:57:53.145Z,6.95
2023-07-05T01:02:05.075Z,6.05
2023-07-05T01:06:17.984Z,5.32
2023-07-05T01:10:30.031Z,4.82
2023-07-05T01:14:48.444Z,5.32
2023-07-05T01:19:15.152Z,4.85
2023-07-05T01:23:51.785Z,4.80
2023-07-05T01:28:27.854Z,4.13
2023-07-05T01:32:56.605Z,4.05
2023-07-05T01:37:10.883Z,4.35
2023-07-05T01:41:23.876Z,3.70
2023-07-05T01:45:55.869Z,3.97
2023-07-05T01:50:22.657Z,3.75
2023-07-05T01:54:47.150Z,4.43
2023-07-05T01:59:02.955Z,4.22
2023-07-05T02:03:19.393Z,4.25
2023-07-05T02:07:32.976Z,3.88
2023-07-05T02:11:45.364Z,3.90
2023-07-05T02:15:57.130Z,3.83
2023-07-05T02:20:09.410Z,3.20
2023-07-05T02:24:21.082Z,2.83
2023-07-05T02:28:33.640Z,2.88
2023-07-05T02:32:45.604Z,2.78
2023-07-05T02:36:59.825Z,2.72
2023-07-05T02:41:11.579Z,2.63
2023-07-05T02:45:23.234Z,2.65
2023-07-05T02:49:35.042Z,2.70
2023-07-05T02:53:46.758Z,2.60
2023-07-05T02:57:58.440Z,2.30
2023-07-05T03:02:11.797Z,2.33
2023-07-05T03:06:24.982Z,2.63
2023-07-05T03:10:40.683Z,2.80
2023-07-05T03:14:53.676Z,3.08
2023-07-05T03:19:05.436Z,3.15
2023-07-05T03:23:19.017Z,3.00
2023-07-05T03:27:30.788Z,3.25
2023-07-05T03:31:43.275Z,2.53
2023-07-05T03:35:56.984Z,2.70
2023-07-05T03:40:09.669Z,2.60
2023-07-05T03:44:23.427Z,2.50
2023-07-05T03:48:39.588Z,2.53
2023-07-05T03:52:51.565Z,2.53
2023-07-05T03:57:03.375Z,2.63
2023-07-05T04:01:24.968Z,2.45
2023-07-05T04:05:36.807Z,2.90
2023-07-05T04:09:48.496Z,2.70
2023-07-05T04:14:00.366Z,2.63
2023-07-05T04:18:12.201Z,3.38
2023-07-05T04:22:24.080Z,2.65
2023-07-05T04:26:36.044Z,2.72
2023-07-05T04:30:47.908Z,2.90
2023-07-05T04:34:59.635Z,2.90
2023-07-05T04:39:11.279Z,3.33
2023-07-05T04:43:22.979Z,3.08
2023-07-05T04:47:34.744Z,3.20
2023-07-05T04:51:46.557Z,2.78
2023-07-05T04:55:59.592Z,3.03
2023-07-05T05:00:12.319Z,2.88
2023-07-05T05:04:24.094Z,2.83
2023-07-05T05:08:36.033Z,2.72
2023-07-05T05:12:47.739Z,3.10
2023-07-05T05:16:59.503Z,3.10
2023-07-05T05:21:11.692Z,2.95
2023-07-05T05:25:23.585Z,3.08
2023-07-05T05:29:35.292Z,2.55
2023-07-05T05:33:48.154Z,2.88
2023-07-05T05:37:59.896Z,2.92
2023-07-05T05:42:11.647Z,3.00
2023-07-05T05:46:23.384Z,2.78
2023-07-05T05:50:36.445Z,2.58
2023-07-05T05:54:48.105Z,2.92
2023-07-05T05:58:59.756Z,2.88
2023-07-05T06:03:11.669Z,2.72
2023-07-05T06:07:23.458Z,2.55
2023-07-05T06:11:35.207Z,2.78
2023-07-05T06:15:53.497Z,2.47
2023-07-05T06:20:17.932Z,2.33
2023-07-05T06:24:29.642Z,2.60
2023-07-05T06:28:41.474Z,2.67
2023-07-05T06:32:53.206Z,2.40
2023-07-05T06:37:05.343Z,2.42
2023-07-05T06:41:17.085Z,2.42
2023-07-05T06:45:28.736Z,2.40
2023-07-05T06:49:43.691Z,2.40
2023-07-05T06:53:55.774Z,2.08
2023-07-05T06:58:07.714Z,2.08
2023-07-05T07:02:19.537Z,1.85
2023-07-05T07:06:31.400Z,1.70
2023-07-05T07:10:43.096Z,1.95
2023-07-05T07:14:54.965Z,1.45
2023-07-05T07:19:06.653Z,1.50
2023-07-05T07:23:18.502Z,1.65
2023-07-05T07:27:30.298Z,1.40
2023-07-05T07:31:42.064Z,1.33
2023-07-05T07:35:53.862Z,1.30
2023-07-05T07:40:10.109Z,1.60
2023-07-05T07:44:22.060Z,1.20
2023-07-05T07:48:33.910Z,1.35
2023-07-05T07:52:46.257Z,1.58
2023-07-05T07:56:58.013Z,1.70
2023-07-05T08:01:16.171Z,1.83
2023-07-05T08:05:29.230Z,1.88
2023-07-05T08:09:41.837Z,2.42
2023-07-05T08:13:53.712Z,1.77
2023-07-05T08:18:05.616Z,2.03
2023-07-05T08:22:19.280Z,2.33
2023-07-05T08:26:31.346Z,2.10
2023-07-05T08:30:43.146Z,1.77
2023-07-05T08:34:54.821Z,2.10
2023-07-05T08:39:07.905Z,2.60
2023-07-05T08:43:22.483Z,2.97
2023-07-05T08:47:46.557Z,3.05
2023-07-05T08:51:59.470Z,3.50
2023-07-05T08:56:22.613Z,3.00
2023-07-05T09:00:42.625Z,2.97
2023-07-05T09:04:59.305Z,2.63
2023-07-05T09:09:21.821Z,2.72
2023-07-05T09:13:42.199Z,1.45
2023-07-05T09:17:55.298Z,3.45
2023-07-05T09:22:12.573Z,3.13
2023-07-05T09:26:47.679Z,3.05
2023-07-05T09:31:01.049Z,1.95
2023-07-05T09:35:26.418Z,1.90
2023-07-05T09:39:51.797Z,1.90
2023-07-05T09:44:04.180Z,2.13
2023-07-05T09:48:18.216Z,2.15
2023-07-05T09:52:30.115Z,2.30
2023-07-05T09:57:07.409Z,2.20
2023-07-05T10:01:24.759Z,1.77
2023-07-05T10:05:40.198Z,2.50
2023-07-05T10:10:06.463Z,2.38
2023-07-05T10:14:21.650Z,2.38
2023-07-05T10:18:35.494Z,2.35
2023-07-05T10:22:47.629Z,2.13
2023-07-05T10:27:04.050Z,2.20
2023-07-05T10:31:31.685Z,2.42
2023-07-05T10:36:13.861Z,2.60
2023-07-05T10:40:26.349Z,2.35
2023-07-05T10:44:40.888Z,2.75
2023-07-05T10:48:54.044Z,2.70
2023-07-05T10:53:19.746Z,2.92
2023-07-05T10:57:40.188Z,2.72
2023-07-05T11:01:58.313Z,2.80
2023-07-05T11:06:12.400Z,2.90
2023-07-05T11:10:25.712Z,2.45
2023-07-05T11:14:38.387Z,2.47
2023-07-05T11:18:53.546Z,2.28
2023-07-05T11:23:05.437Z,1.95
2023-07-05T11:27:26.159Z,1.67
2023-07-05T11:31:40.928Z,1.67
2023-07-05T11:35:52.614Z,1.60
2023-07-05T11:40:06.866Z,1.88
2023-07-05T11:44:29.273Z,1.60
2023-07-05T11:48:44.382Z,1.40
2023-07-05T11:53:07.311Z,1.73
2023-07-05T11:57:19.202Z,1.40
2023-07-05T12:01:37.070Z,1.73
2023-07-05T12:06:00.911Z,1.45
2023-07-05T12:10:23.642Z,1.90
2023-07-05T12:14:37.955Z,1.70
2023-07-05T12:18:49.648Z,2.03
2023-07-05T12:23:02.149Z,2.22
2023-07-05T12:27:22.981Z,2.10
2023-07-05T12:31:34.675Z,1.88
2023-07-05T12:35:46.440Z,2.13
2023-07-05T12:40:18.145Z,1.80
2023-07-05T12:44:32.123Z,1.90
2023-07-05T12:48:43.892Z,1.67
2023-07-05T12:53:03.987Z,1.73
2023-07-05T12:57:26.821Z,1.80
2023-07-05T13:01:41.915Z,1.80
2023-07-05T13:05:55.345Z,1.90
2023-07-05T13:10:08.688Z,1.95
2023-07-05T13:14:33.082Z,1.92
2023-07-05T13:19:07.565Z,1.92
2023-07-05T13:23:29.319Z,2.13
2023-07-05T13:27:43.510Z,1.88
2023-07-05T13:31:56.470Z,1.92
2023-07-05T13:36:09.517Z,2.10
2023-07-05T13:40:27.824Z,1.60
2023-07-05T13:44:39.638Z,1.60
2023-07-05T13:53:09.988Z,2.00
2023-07-05T13:57:21.674Z,2.05
2023-07-05T14:01:33.444Z,1.67
2023-07-05T14:05:45.332Z,2.03
2023-07-05T14:09:57.171Z,2.20
2023-07-05T14:14:13.320Z,2.10
2023-07-05T14:18:25.041Z,1.90
2023-07-05T14:22:36.882Z,2.15
2023-07-05T14:26:48.690Z,2.13
2023-07-05T14:31:00.536Z,2.22
2023-07-05T14:35:20.956Z,2.40
2023-07-05T14:39:32.784Z,2.22
2023-07-05T14:43:44.503Z,2.50
2023-07-05T14:47:59.136Z,1.70
2023-07-05T14:52:12.748Z,2.70
2023-07-05T14:56:24.577Z,2.42
2023-07-05T15:00:36.466Z,2.50
2023-07-05T15:04:48.337Z,2.67
2023-07-05T15:09:00.077Z,2.45
2023-07-05T15:13:13.262Z,2.17
2023-07-05T15:17:24.992Z,2.33
2023-07-05T15:21:36.902Z,2.40
2023-07-05T15:25:48.827Z,2.47
2023-07-05T15:30:00.648Z,2.75
2023-07-05T15:34:12.438Z,2.30
2023-07-05T15:38:24.189Z,2.42
2023-07-05T15:42:36.135Z,2.20
2023-07-05T15:46:48.018Z,2.63
2023-07-05T15:50:59.886Z,2.22
2023-07-05T15:55:12.741Z,2.85
2023-07-05T15:59:26.863Z,2.50
2023-07-05T16:03:40.199Z,2.17
2023-07-05T16:07:52.091Z,2.47
2023-07-05T16:12:04.391Z,2.95
2023-07-05T16:16:16.170Z,2.47
2023-07-05T16:20:28.639Z,2.42
2023-07-05T16:24:40.488Z,2.63
2023-07-05T16:28:52.801Z,2.45
2023-07-05T16:33:04.743Z,1.92
2023-07-05T16:37:17.040Z,2.28
2023-07-05T16:41:28.972Z,1.95
2023-07-05T16:45:43.539Z,2.10
2023-07-05T16:49:55.329Z,2.10
2023-07-05T16:54:08.021Z,2.00
2023-07-05T16:58:19.962Z,2.28
2023-07-05T17:02:32.103Z,2.35
2023-07-05T17:06:44.004Z,1.85
2023-07-05T17:10:58.000Z,2.30
2023-07-05T17:15:10.158Z,2.05
2023-07-05T17:19:22.519Z,1.50
2023-07-05T17:23:34.862Z,1.70
2023-07-05T17:27:49.640Z,1.60
2023-07-05T17:32:02.304Z,1.40
2023-07-05T17:36:17.842Z,1.70
2023-07-05T17:40:29.700Z,1.50
2023-07-05T17:44:42.230Z,1.23
2023-07-05T17:49:02.349Z,1.50
2023-07-05T17:53:14.182Z,1.40
2023-07-05T17:57:25.945Z,1.67
2023-07-05T18:01:37.853Z,1.35
2023-07-05T18:05:56.284Z,1.52
2023-07-05T18:10:11.691Z,1.65
2023-07-05T18:14:23.519Z,1.60
2023-07-05T18:18:35.411Z,1.58
2023-07-05T18:22:49.903Z,1.40
2023-07-05T18:27:02.443Z,1.60
2023-07-05T18:31:14.287Z,1.88
2023-07-05T18:35:26.066Z,1.77
2023-07-05T18:39:37.833Z,1.60
2023-07-05T18:43:49.530Z,1.48
2023-07-05T18:48:02.027Z,1.50
2023-07-05T18:52:13.791Z,1.88
2023-07-05T18:56:25.781Z,1.30
2023-07-05T19:00:39.109Z,1.67
2023-07-05T19:04:50.947Z,1.80
2023-07-05T19:09:04.069Z,1.83
2023-07-05T19:13:15.918Z,2.08
2023-07-05T19:17:28.134Z,1.70
2023-07-05T19:21:40.676Z,1.90
2023-07-05T19:25:58.040Z,1.80
2023-07-05T19:30:10.538Z,2.00
2023-07-05T19:34:22.278Z,1.77
2023-07-05T19:38:34.952Z,2.20
2023-07-05T19:42:47.040Z,2.00
2023-07-05T19:46:58.811Z,1.80
2023-07-05T19:51:12.621Z,2.20
2023-07-05T19:55:24.394Z,2.15
2023-07-05T19:59:36.312Z,2.25
2023-07-05T20:03:48.328Z,2.15
2023-07-05T20:08:00.960Z,2.50
2023-07-05T20:12:13.917Z,2.60
2023-07-05T20:16:27.566Z,2.80
2023-07-05T20:20:40.655Z,3.25
2023-07-05T20:25:01.386Z,2.75
2023-07-05T20:29:16.424Z,3.30
2023-07-05T20:33:40.561Z,3.08
2023-07-05T20:38:00.210Z,3.38
2023-07-05T20:42:23.558Z,3.33
2023-07-05T20:47:19.319Z,3.60
2023-07-05T20:51:48.173Z,3.92
2023-07-05T20:56:13.706Z,4.18
2023-07-05T21:00:35.561Z,5.03
2023-07-05T21:04:54.181Z,4.13
2023-07-05T21:09:15.465Z,4.13
2023-07-05T21:13:48.285Z,4.35
2023-07-05T21:18:14.890Z,4.40
2023-07-05T21:22:27.029Z,4.43
2023-07-05T21:26:39.267Z,4.03
2023-07-05T21:30:56.206Z,4.60
2023-07-05T21:35:08.893Z,4.43
2023-07-05T21:39:21.232Z,4.35
2023-07-05T21:43:34.171Z,4.25
2023-07-05T21:47:47.376Z,4.03
2023-07-05T21:51:59.476Z,4.50
2023-07-05T21:56:12.167Z,4.57
2023-07-05T22:00:24.426Z,4.88
2023-07-05T22:04:37.318Z,5.00
2023-07-05T22:08:49.233Z,5.18
2023-07-05T22:13:01.695Z,5.43
2023-07-05T22:17:13.800Z,5.38
2023-07-05T22:21:26.589Z,4.85
2023-07-05T22:25:38.641Z,5.35
2023-07-05T22:29:50.356Z,6.00
2023-07-05T22:34:02.086Z,5.75
2023-07-05T22:38:13.880Z,5.60
2023-07-05T22:42:26.319Z,4.63
2023-07-05T22:46:39.463Z,5.60
2023-07-05T22:50:51.294Z,5.88
2023-07-05T22:55:03.543Z,6.20
2023-07-05T22:59:15.356Z,6.38
2023-07-05T23:03:27.521Z,6.38
2023-07-05T23:07:39.668Z,6.18
2023-07-05T23:11:51.991Z,6.28
2023-07-05T23:16:05.086Z,6.10
2023-07-05T23:20:17.448Z,5.90
2023-07-05T23:24:29.199Z,6.13
2023-07-05T23:28:41.086Z,6.40
2023-07-05T23:32:53.023Z,5.57
2023-07-05T23:37:05.038Z,6.07
2023-07-05T23:41:18.209Z,5.70
2023-07-05T23:45:31.525Z,5.85
2023-07-05T23:49:45.595Z,6.05
2023-07-05T23:54:00.201Z,5.50
2023-07-05T23:58:12.400Z,5.97
